sensor_id;sensor_type;location;lat;lon;timestamp;temperature;humidity
45066;DHT22;30830;53.704;10.004;2022-12-07T00:01:16;2.00;99.90
45066;DHT22;30830;53.704;10.004;2022-12-07T00:03:43;2.10;99.90
45066;DHT22;30830;53.704;10.004;2022-12-07T00:06:09;2.10;99.90
45066;DHT22;30830;53.704;10.004;2022-12-07T00:08:35;2.20;99.90
45066;DHT22;30830;53.704;10.004;2022-12-07T00:11:08;2.20;99.90
45066;DHT22;30830;53.704;10.004;2022-12-07T00:13:34;2.30;99.90
45066;DHT22;30830;53.704;10.004;2022-12-07T00:16:04;2.30;99.90
45066;DHT22;30830;53.704;10.004;2022-12-07T00:18:30;2.30;99.90
45066;DHT22;30830;53.704;10.004;2022-12-07T00:21:03;2.30;99.90
45066;DHT22;30830;53.704;10.004;2022-12-07T00:23:29;2.30;99.90
45066;DHT22;30830;53.704;10.004;2022-12-07T00:25:54;2.30;99.90
45066;DHT22;30830;53.704;10.004;2022-12-07T00:28:20;2.30;99.90
45066;DHT22;30830;53.704;10.004;2022-12-07T00:30:45;2.30;99.90
45066;DHT22;30830;53.704;10.004;2022-12-07T00:33:11;2.40;99.90
45066;DHT22;30830;53.704;10.004;2022-12-07T00:35:36;2.40;99.90
45066;DHT22;30830;53.704;10.004;2022-12-07T00:38:02;2.40;99.90
45066;DHT22;30830;53.704;10.004;2022-12-07T00:40:27;2.40;99.90
45066;DHT22;30830;53.704;10.004;2022-12-07T00:42:53;2.40;99.90
45066;DHT22;30830;53.704;10.004;2022-12-07T00:45:18;2.40;99.90
45066;DHT22;30830;53.704;10.004;2022-12-07T00:47:44;2.40;99.90
45066;DHT22;30830;53.704;10.004;2022-12-07T00:50:09;2.40;99.90
45066;DHT22;30830;53.704;10.004;2022-12-07T00:52:35;2.40;99.90
45066;DHT22;30830;53.704;10.004;2022-12-07T00:55:00;2.40;99.90
45066;DHT22;30830;53.704;10.004;2022-12-07T00:57:26;2.40;99.90
45066;DHT22;30830;53.704;10.004;2022-12-07T00:59:51;2.40;99.90
45066;DHT22;30830;53.704;10.004;2022-12-07T01:02:20;2.40;99.90
45066;DHT22;30830;53.704;10.004;2022-12-07T01:04:46;2.40;99.90
45066;DHT22;30830;53.704;10.004;2022-12-07T01:07:12;2.40;99.90
45066;DHT22;30830;53.704;10.004;2022-12-07T01:09:37;2.40;99.90
45066;DHT22;30830;53.704;10.004;2022-12-07T01:12:03;2.30;99.90
45066;DHT22;30830;53.704;10.004;2022-12-07T01:14:28;2.40;99.90
45066;DHT22;30830;53.704;10.004;2022-12-07T01:16:54;2.30;99.90
45066;DHT22;30830;53.704;10.004;2022-12-07T01:19:19;2.30;99.90
45066;DHT22;30830;53.704;10.004;2022-12-07T01:21:45;2.30;99.90
45066;DHT22;30830;53.704;10.004;2022-12-07T01:24:10;2.30;99.90
45066;DHT22;30830;53.704;10.004;2022-12-07T01:26:36;2.30;99.90
45066;DHT22;30830;53.704;10.004;2022-12-07T01:29:02;2.30;99.90
45066;DHT22;30830;53.704;10.004;2022-12-07T01:31:27;2.30;99.90
45066;DHT22;30830;53.704;10.004;2022-12-07T01:33:55;2.30;99.90
45066;DHT22;30830;53.704;10.004;2022-12-07T01:36:22;2.30;99.90
45066;DHT22;30830;53.704;10.004;2022-12-07T01:38:48;2.20;99.90
45066;DHT22;30830;53.704;10.004;2022-12-07T01:41:16;2.20;99.90
45066;DHT22;30830;53.704;10.004;2022-12-07T01:46:26;2.20;99.90
45066;DHT22;30830;53.704;10.004;2022-12-07T01:48:52;2.20;99.90
45066;DHT22;30830;53.704;10.004;2022-12-07T01:51:17;2.20;99.90
45066;DHT22;30830;53.704;10.004;2022-12-07T01:53:43;2.10;99.90
45066;DHT22;30830;53.704;10.004;2022-12-07T01:56:11;2.20;99.90
45066;DHT22;30830;53.704;10.004;2022-12-07T01:58:40;2.10;99.90
45066;DHT22;30830;53.704;10.004;2022-12-07T02:01:06;2.10;99.90
45066;DHT22;30830;53.704;10.004;2022-12-07T02:03:36;2.10;99.90
45066;DHT22;30830;53.704;10.004;2022-12-07T02:06:03;2.00;99.90
45066;DHT22;30830;53.704;10.004;2022-12-07T02:08:29;2.00;99.90
45066;DHT22;30830;53.704;10.004;2022-12-07T02:10:55;2.00;99.90
45066;DHT22;30830;53.704;10.004;2022-12-07T02:13:24;2.00;99.90
45066;DHT22;30830;53.704;10.004;2022-12-07T02:15:55;2.00;99.90
45066;DHT22;30830;53.704;10.004;2022-12-07T02:28:49;2.00;99.90
45066;DHT22;30830;53.704;10.004;2022-12-07T02:31:17;2.00;99.90
45066;DHT22;30830;53.704;10.004;2022-12-07T02:33:45;1.90;99.90
45066;DHT22;30830;53.704;10.004;2022-12-07T02:36:13;2.00;99.90
45066;DHT22;30830;53.704;10.004;2022-12-07T02:38:42;1.90;99.90
45066;DHT22;30830;53.704;10.004;2022-12-07T02:41:10;2.00;99.90
45066;DHT22;30830;53.704;10.004;2022-12-07T02:46:04;1.90;99.90
45066;DHT22;30830;53.704;10.004;2022-12-07T02:48:31;1.80;99.90
45066;DHT22;30830;53.704;10.004;2022-12-07T02:50:58;1.80;99.90
45066;DHT22;30830;53.704;10.004;2022-12-07T02:53:41;1.80;99.90
45066;DHT22;30830;53.704;10.004;2022-12-07T02:58:49;1.70;99.90
45066;DHT22;30830;53.704;10.004;2022-12-07T03:03:46;1.60;99.90
45066;DHT22;30830;53.704;10.004;2022-12-07T03:06:20;1.50;99.90
45066;DHT22;30830;53.704;10.004;2022-12-07T03:08:50;1.50;99.90
45066;DHT22;30830;53.704;10.004;2022-12-07T03:11:30;1.50;99.90
45066;DHT22;30830;53.704;10.004;2022-12-07T03:14:07;1.40;99.90
45066;DHT22;30830;53.704;10.004;2022-12-07T03:16:50;1.40;99.90
45066;DHT22;30830;53.704;10.004;2022-12-07T03:19:18;1.40;99.90
45066;DHT22;30830;53.704;10.004;2022-12-07T03:21:53;1.40;99.90
45066;DHT22;30830;53.704;10.004;2022-12-07T03:24:21;1.40;99.90
45066;DHT22;30830;53.704;10.004;2022-12-07T03:26:49;1.30;99.90
45066;DHT22;30830;53.704;10.004;2022-12-07T03:29:26;1.30;99.90
45066;DHT22;30830;53.704;10.004;2022-12-07T03:32:01;1.30;99.90
45066;DHT22;30830;53.704;10.004;2022-12-07T03:34:29;1.20;99.90
45066;DHT22;30830;53.704;10.004;2022-12-07T03:37:10;1.20;99.90
45066;DHT22;30830;53.704;10.004;2022-12-07T03:39:45;1.20;99.90
45066;DHT22;30830;53.704;10.004;2022-12-07T03:42:14;1.20;99.90
45066;DHT22;30830;53.704;10.004;2022-12-07T03:44:39;1.20;99.90
45066;DHT22;30830;53.704;10.004;2022-12-07T03:47:24;1.20;99.90
45066;DHT22;30830;53.704;10.004;2022-12-07T03:49:53;1.10;99.90
45066;DHT22;30830;53.704;10.004;2022-12-07T03:54:59;1.10;99.90
45066;DHT22;30830;53.704;10.004;2022-12-07T03:57:26;1.10;99.90
45066;DHT22;30830;53.704;10.004;2022-12-07T03:59:53;1.20;99.90
45066;DHT22;30830;53.704;10.004;2022-12-07T04:02:19;1.10;99.90
45066;DHT22;30830;53.704;10.004;2022-12-07T04:04:45;1.20;99.90
45066;DHT22;30830;53.704;10.004;2022-12-07T04:07:10;1.20;99.90
45066;DHT22;30830;53.704;10.004;2022-12-07T04:09:36;1.20;99.90
45066;DHT22;30830;53.704;10.004;2022-12-07T04:12:01;1.10;99.90
45066;DHT22;30830;53.704;10.004;2022-12-07T04:14:27;1.10;99.90
45066;DHT22;30830;53.704;10.004;2022-12-07T04:16:53;1.10;99.90
45066;DHT22;30830;53.704;10.004;2022-12-07T04:19:25;1.10;99.90
45066;DHT22;30830;53.704;10.004;2022-12-07T04:21:51;1.00;99.90
45066;DHT22;30830;53.704;10.004;2022-12-07T04:24:17;1.00;99.90
45066;DHT22;30830;53.704;10.004;2022-12-07T04:26:43;1.00;99.90
45066;DHT22;30830;53.704;10.004;2022-12-07T04:29:09;1.00;99.90
45066;DHT22;30830;53.704;10.004;2022-12-07T04:31:35;1.00;99.90
45066;DHT22;30830;53.704;10.004;2022-12-07T04:34:00;0.90;99.90
45066;DHT22;30830;53.704;10.004;2022-12-07T04:36:26;0.90;99.90
45066;DHT22;30830;53.704;10.004;2022-12-07T04:38:54;0.90;99.90
45066;DHT22;30830;53.704;10.004;2022-12-07T04:41:20;0.90;99.90
45066;DHT22;30830;53.704;10.004;2022-12-07T04:43:54;0.90;99.90
45066;DHT22;30830;53.704;10.004;2022-12-07T04:46:20;0.90;99.90
45066;DHT22;30830;53.704;10.004;2022-12-07T04:48:46;0.80;99.90
45066;DHT22;30830;53.704;10.004;2022-12-07T04:51:18;0.80;99.90
45066;DHT22;30830;53.704;10.004;2022-12-07T04:53:44;0.80;99.90
45066;DHT22;30830;53.704;10.004;2022-12-07T04:56:09;0.80;99.90
45066;DHT22;30830;53.704;10.004;2022-12-07T04:58:34;0.70;99.90
45066;DHT22;30830;53.704;10.004;2022-12-07T05:01:00;0.70;99.90
45066;DHT22;30830;53.704;10.004;2022-12-07T05:03:25;0.70;99.90
45066;DHT22;30830;53.704;10.004;2022-12-07T05:05:51;0.70;99.90
45066;DHT22;30830;53.704;10.004;2022-12-07T05:08:16;0.60;99.90
45066;DHT22;30830;53.704;10.004;2022-12-07T05:10:42;0.60;99.90
45066;DHT22;30830;53.704;10.004;2022-12-07T05:13:07;0.60;99.90
45066;DHT22;30830;53.704;10.004;2022-12-07T05:15:33;0.60;99.90
45066;DHT22;30830;53.704;10.004;2022-12-07T05:17:58;0.60;99.90
45066;DHT22;30830;53.704;10.004;2022-12-07T05:20:24;0.60;99.90
45066;DHT22;30830;53.704;10.004;2022-12-07T05:22:49;0.60;99.90
45066;DHT22;30830;53.704;10.004;2022-12-07T05:25:15;0.60;99.90
45066;DHT22;30830;53.704;10.004;2022-12-07T05:27:40;0.50;99.90
45066;DHT22;30830;53.704;10.004;2022-12-07T05:30:06;0.50;99.90
45066;DHT22;30830;53.704;10.004;2022-12-07T05:32:32;0.50;99.90
45066;DHT22;30830;53.704;10.004;2022-12-07T05:34:57;0.50;99.90
45066;DHT22;30830;53.704;10.004;2022-12-07T05:37:23;0.50;99.90
45066;DHT22;30830;53.704;10.004;2022-12-07T05:39:48;0.50;99.90
45066;DHT22;30830;53.704;10.004;2022-12-07T05:42:14;0.50;99.90
45066;DHT22;30830;53.704;10.004;2022-12-07T05:44:40;0.50;99.90
45066;DHT22;30830;53.704;10.004;2022-12-07T05:47:05;0.40;99.90
45066;DHT22;30830;53.704;10.004;2022-12-07T05:49:31;0.40;99.90
45066;DHT22;30830;53.704;10.004;2022-12-07T05:51:56;0.40;99.90
45066;DHT22;30830;53.704;10.004;2022-12-07T05:54:22;0.40;99.90
45066;DHT22;30830;53.704;10.004;2022-12-07T05:56:48;0.40;99.90
45066;DHT22;30830;53.704;10.004;2022-12-07T05:59:13;0.30;99.90
45066;DHT22;30830;53.704;10.004;2022-12-07T06:02:09;0.30;99.90
45066;DHT22;30830;53.704;10.004;2022-12-07T06:04:34;0.30;99.90
45066;DHT22;30830;53.704;10.004;2022-12-07T06:07:00;0.30;99.90
45066;DHT22;30830;53.704;10.004;2022-12-07T06:09:26;0.20;99.90
45066;DHT22;30830;53.704;10.004;2022-12-07T06:11:52;0.20;99.90
45066;DHT22;30830;53.704;10.004;2022-12-07T06:14:36;0.20;99.90
45066;DHT22;30830;53.704;10.004;2022-12-07T06:17:02;0.20;99.90
45066;DHT22;30830;53.704;10.004;2022-12-07T06:19:28;0.20;99.90
45066;DHT22;30830;53.704;10.004;2022-12-07T06:21:53;0.20;99.90
45066;DHT22;30830;53.704;10.004;2022-12-07T06:24:19;0.20;99.90
45066;DHT22;30830;53.704;10.004;2022-12-07T06:26:44;0.20;99.90
45066;DHT22;30830;53.704;10.004;2022-12-07T06:29:10;0.20;99.90
45066;DHT22;30830;53.704;10.004;2022-12-07T06:31:36;0.10;99.90
45066;DHT22;30830;53.704;10.004;2022-12-07T06:34:04;0.10;99.90
45066;DHT22;30830;53.704;10.004;2022-12-07T06:36:29;0.20;99.90
45066;DHT22;30830;53.704;10.004;2022-12-07T06:38:55;0.20;99.90
45066;DHT22;30830;53.704;10.004;2022-12-07T06:41:21;0.20;99.90
45066;DHT22;30830;53.704;10.004;2022-12-07T06:43:46;0.20;99.90
45066;DHT22;30830;53.704;10.004;2022-12-07T06:46:12;0.20;99.90
45066;DHT22;30830;53.704;10.004;2022-12-07T06:48:38;0.20;99.90
45066;DHT22;30830;53.704;10.004;2022-12-07T06:51:03;0.20;99.90
45066;DHT22;30830;53.704;10.004;2022-12-07T06:53:29;0.20;99.90
45066;DHT22;30830;53.704;10.004;2022-12-07T06:55:54;0.20;99.90
45066;DHT22;30830;53.704;10.004;2022-12-07T06:58:20;0.20;99.90
45066;DHT22;30830;53.704;10.004;2022-12-07T07:00:45;0.30;99.90
45066;DHT22;30830;53.704;10.004;2022-12-07T07:03:12;0.30;99.90
45066;DHT22;30830;53.704;10.004;2022-12-07T07:05:38;0.40;99.90
45066;DHT22;30830;53.704;10.004;2022-12-07T07:08:03;0.40;99.90
45066;DHT22;30830;53.704;10.004;2022-12-07T07:10:30;0.40;99.90
45066;DHT22;30830;53.704;10.004;2022-12-07T07:12:55;0.40;99.90
45066;DHT22;30830;53.704;10.004;2022-12-07T07:15:21;0.50;99.90
45066;DHT22;30830;53.704;10.004;2022-12-07T07:17:46;0.50;99.90
45066;DHT22;30830;53.704;10.004;2022-12-07T07:20:12;0.40;99.90
45066;DHT22;30830;53.704;10.004;2022-12-07T07:22:37;0.40;99.90
45066;DHT22;30830;53.704;10.004;2022-12-07T07:25:03;0.50;99.90
45066;DHT22;30830;53.704;10.004;2022-12-07T07:27:29;0.50;99.90
45066;DHT22;30830;53.704;10.004;2022-12-07T07:29:54;0.50;99.90
45066;DHT22;30830;53.704;10.004;2022-12-07T07:32:19;0.50;99.90
45066;DHT22;30830;53.704;10.004;2022-12-07T07:34:46;0.50;99.90
45066;DHT22;30830;53.704;10.004;2022-12-07T07:37:12;0.50;99.90
45066;DHT22;30830;53.704;10.004;2022-12-07T07:39:38;0.60;99.90
45066;DHT22;30830;53.704;10.004;2022-12-07T07:42:04;0.60;99.90
45066;DHT22;30830;53.704;10.004;2022-12-07T07:44:29;0.60;99.90
45066;DHT22;30830;53.704;10.004;2022-12-07T07:46:55;0.60;99.90
45066;DHT22;30830;53.704;10.004;2022-12-07T07:49:20;0.60;99.90
45066;DHT22;30830;53.704;10.004;2022-12-07T07:51:45;0.60;99.90
45066;DHT22;30830;53.704;10.004;2022-12-07T07:54:11;0.60;99.90
45066;DHT22;30830;53.704;10.004;2022-12-07T07:56:36;0.60;99.90
45066;DHT22;30830;53.704;10.004;2022-12-07T07:59:02;0.60;99.90
45066;DHT22;30830;53.704;10.004;2022-12-07T08:01:28;0.70;99.90
45066;DHT22;30830;53.704;10.004;2022-12-07T08:03:53;0.70;99.90
45066;DHT22;30830;53.704;10.004;2022-12-07T08:06:19;0.70;99.90
45066;DHT22;30830;53.704;10.004;2022-12-07T08:08:44;0.80;99.90
45066;DHT22;30830;53.704;10.004;2022-12-07T08:11:09;0.80;99.90
45066;DHT22;30830;53.704;10.004;2022-12-07T08:13:35;0.80;99.90
45066;DHT22;30830;53.704;10.004;2022-12-07T08:16:04;0.80;99.90
45066;DHT22;30830;53.704;10.004;2022-12-07T08:18:30;0.80;99.90
45066;DHT22;30830;53.704;10.004;2022-12-07T08:20:59;0.80;99.90
45066;DHT22;30830;53.704;10.004;2022-12-07T08:23:26;0.80;99.90
45066;DHT22;30830;53.704;10.004;2022-12-07T08:25:51;0.80;99.90
45066;DHT22;30830;53.704;10.004;2022-12-07T08:28:17;0.90;99.90
45066;DHT22;30830;53.704;10.004;2022-12-07T08:30:42;0.90;99.90
45066;DHT22;30830;53.704;10.004;2022-12-07T08:33:09;0.90;99.90
45066;DHT22;30830;53.704;10.004;2022-12-07T08:35:34;0.90;99.90
45066;DHT22;30830;53.704;10.004;2022-12-07T08:38:00;0.90;99.90
45066;DHT22;30830;53.704;10.004;2022-12-07T08:40:27;0.90;99.90
45066;DHT22;30830;53.704;10.004;2022-12-07T08:42:53;1.00;99.90
45066;DHT22;30830;53.704;10.004;2022-12-07T08:45:19;1.00;99.90
45066;DHT22;30830;53.704;10.004;2022-12-07T08:47:46;1.00;99.90
45066;DHT22;30830;53.704;10.004;2022-12-07T08:50:13;1.00;99.90
45066;DHT22;30830;53.704;10.004;2022-12-07T08:52:39;1.00;99.90
45066;DHT22;30830;53.704;10.004;2022-12-07T08:55:05;1.10;99.90
45066;DHT22;30830;53.704;10.004;2022-12-07T08:57:31;1.10;99.90
45066;DHT22;30830;53.704;10.004;2022-12-07T08:59:57;1.20;99.90
45066;DHT22;30830;53.704;10.004;2022-12-07T09:02:23;1.20;99.90
45066;DHT22;30830;53.704;10.004;2022-12-07T09:04:48;1.20;99.90
45066;DHT22;30830;53.704;10.004;2022-12-07T09:07:14;1.20;99.90
45066;DHT22;30830;53.704;10.004;2022-12-07T09:09:39;1.20;99.90
45066;DHT22;30830;53.704;10.004;2022-12-07T09:12:04;1.30;99.90
45066;DHT22;30830;53.704;10.004;2022-12-07T09:14:30;1.30;99.90
45066;DHT22;30830;53.704;10.004;2022-12-07T09:17:04;1.30;99.90
45066;DHT22;30830;53.704;10.004;2022-12-07T09:19:29;1.40;99.90
45066;DHT22;30830;53.704;10.004;2022-12-07T09:21:55;1.40;99.90
45066;DHT22;30830;53.704;10.004;2022-12-07T09:24:20;1.40;99.90
45066;DHT22;30830;53.704;10.004;2022-12-07T09:26:46;1.50;99.90
45066;DHT22;30830;53.704;10.004;2022-12-07T09:29:11;1.50;99.90
45066;DHT22;30830;53.704;10.004;2022-12-07T09:31:37;1.50;99.90
45066;DHT22;30830;53.704;10.004;2022-12-07T09:34:02;1.50;99.90
45066;DHT22;30830;53.704;10.004;2022-12-07T09:36:28;1.60;99.90
45066;DHT22;30830;53.704;10.004;2022-12-07T09:38:53;1.60;99.90
45066;DHT22;30830;53.704;10.004;2022-12-07T09:41:19;1.60;99.90
45066;DHT22;30830;53.704;10.004;2022-12-07T09:43:45;1.70;99.90
45066;DHT22;30830;53.704;10.004;2022-12-07T09:46:13;1.70;99.90
45066;DHT22;30830;53.704;10.004;2022-12-07T09:48:39;1.70;99.90
45066;DHT22;30830;53.704;10.004;2022-12-07T09:51:14;1.80;99.90
45066;DHT22;30830;53.704;10.004;2022-12-07T09:53:41;1.80;99.90
45066;DHT22;30830;53.704;10.004;2022-12-07T09:56:08;1.90;99.90
45066;DHT22;30830;53.704;10.004;2022-12-07T09:58:36;1.90;99.90
45066;DHT22;30830;53.704;10.004;2022-12-07T10:01:11;1.90;99.90
45066;DHT22;30830;53.704;10.004;2022-12-07T10:03:38;1.90;99.90
45066;DHT22;30830;53.704;10.004;2022-12-07T10:06:04;2.00;99.90
45066;DHT22;30830;53.704;10.004;2022-12-07T10:08:30;2.10;99.90
45066;DHT22;30830;53.704;10.004;2022-12-07T10:10:56;2.10;99.90
45066;DHT22;30830;53.704;10.004;2022-12-07T10:13:32;2.10;99.90
45066;DHT22;30830;53.704;10.004;2022-12-07T10:15:58;2.10;99.90
45066;DHT22;30830;53.704;10.004;2022-12-07T10:18:37;2.20;99.90
45066;DHT22;30830;53.704;10.004;2022-12-07T10:21:04;2.20;99.90
45066;DHT22;30830;53.704;10.004;2022-12-07T10:23:30;2.20;99.90
45066;DHT22;30830;53.704;10.004;2022-12-07T10:25:56;2.20;99.90
45066;DHT22;30830;53.704;10.004;2022-12-07T10:28:21;2.20;99.90
45066;DHT22;30830;53.704;10.004;2022-12-07T10:33:27;2.20;99.90
45066;DHT22;30830;53.704;10.004;2022-12-07T10:35:53;2.30;99.90
45066;DHT22;30830;53.704;10.004;2022-12-07T10:38:18;2.30;99.90
45066;DHT22;30830;53.704;10.004;2022-12-07T10:40:44;2.30;99.90
45066;DHT22;30830;53.704;10.004;2022-12-07T10:46:05;2.40;99.90
45066;DHT22;30830;53.704;10.004;2022-12-07T10:48:30;2.50;99.90
45066;DHT22;30830;53.704;10.004;2022-12-07T10:56:34;2.50;99.90
45066;DHT22;30830;53.704;10.004;2022-12-07T10:59:09;2.50;99.90
45066;DHT22;30830;53.704;10.004;2022-12-07T11:06:54;2.60;99.90
45066;DHT22;30830;53.704;10.004;2022-12-07T11:11:57;2.70;99.90
45066;DHT22;30830;53.704;10.004;2022-12-07T11:18:01;2.80;99.90
45066;DHT22;30830;53.704;10.004;2022-12-07T11:25:26;2.80;99.90
45066;DHT22;30830;53.704;10.004;2022-12-07T11:28:06;2.80;99.90
45066;DHT22;30830;53.704;10.004;2022-12-07T11:38:01;2.90;99.90
45066;DHT22;30830;53.704;10.004;2022-12-07T11:40:35;3.00;99.90
45066;DHT22;30830;53.704;10.004;2022-12-07T11:45:33;3.00;99.90
45066;DHT22;30830;53.704;10.004;2022-12-07T11:55:54;3.00;99.90
45066;DHT22;30830;53.704;10.004;2022-12-07T12:00:55;3.10;99.90
45066;DHT22;30830;53.704;10.004;2022-12-07T12:03:28;3.10;99.90
45066;DHT22;30830;53.704;10.004;2022-12-07T12:05:57;3.20;99.90
45066;DHT22;30830;53.704;10.004;2022-12-07T12:08:27;3.10;99.90
45066;DHT22;30830;53.704;10.004;2022-12-07T12:10:56;3.20;99.90
45066;DHT22;30830;53.704;10.004;2022-12-07T12:16:01;3.20;99.90
45066;DHT22;30830;53.704;10.004;2022-12-07T12:18:45;3.20;99.90
45066;DHT22;30830;53.704;10.004;2022-12-07T12:21:16;3.20;99.90
45066;DHT22;30830;53.704;10.004;2022-12-07T12:23:43;3.20;99.90
45066;DHT22;30830;53.704;10.004;2022-12-07T12:26:16;3.20;99.90
45066;DHT22;30830;53.704;10.004;2022-12-07T12:33:36;3.20;99.90
45066;DHT22;30830;53.704;10.004;2022-12-07T12:41:11;3.30;99.90
45066;DHT22;30830;53.704;10.004;2022-12-07T12:43:57;3.30;99.90
45066;DHT22;30830;53.704;10.004;2022-12-07T12:51:40;3.30;99.90
45066;DHT22;30830;53.704;10.004;2022-12-07T12:54:10;3.30;99.90
45066;DHT22;30830;53.704;10.004;2022-12-07T13:01:49;3.30;99.90
45066;DHT22;30830;53.704;10.004;2022-12-07T13:06:44;3.30;99.90
45066;DHT22;30830;53.704;10.004;2022-12-07T13:09:25;3.30;99.90
45066;DHT22;30830;53.704;10.004;2022-12-07T13:11:56;3.30;99.90
45066;DHT22;30830;53.704;10.004;2022-12-07T13:17:09;3.30;99.90
45066;DHT22;30830;53.704;10.004;2022-12-07T13:24:54;3.30;99.90
45066;DHT22;30830;53.704;10.004;2022-12-07T13:27:21;3.30;99.90
45066;DHT22;30830;53.704;10.004;2022-12-07T13:29:46;3.30;99.90
45066;DHT22;30830;53.704;10.004;2022-12-07T13:32:23;3.30;99.90
45066;DHT22;30830;53.704;10.004;2022-12-07T13:34:49;3.30;99.90
45066;DHT22;30830;53.704;10.004;2022-12-07T13:37:27;3.30;99.90
45066;DHT22;30830;53.704;10.004;2022-12-07T13:39:56;3.30;99.90
45066;DHT22;30830;53.704;10.004;2022-12-07T13:42:29;3.30;99.90
45066;DHT22;30830;53.704;10.004;2022-12-07T13:44:55;3.30;99.90
45066;DHT22;30830;53.704;10.004;2022-12-07T13:47:54;3.20;99.90
45066;DHT22;30830;53.704;10.004;2022-12-07T13:50:26;3.20;99.90
45066;DHT22;30830;53.704;10.004;2022-12-07T13:52:56;3.10;99.90
45066;DHT22;30830;53.704;10.004;2022-12-07T13:55:22;3.10;99.90
45066;DHT22;30830;53.704;10.004;2022-12-07T13:57:49;3.10;99.90
45066;DHT22;30830;53.704;10.004;2022-12-07T14:00:16;3.00;99.90
45066;DHT22;30830;53.704;10.004;2022-12-07T14:02:58;3.00;99.90
45066;DHT22;30830;53.704;10.004;2022-12-07T14:05:28;2.90;99.90
45066;DHT22;30830;53.704;10.004;2022-12-07T14:12:55;2.80;99.90
45066;DHT22;30830;53.704;10.004;2022-12-07T14:15:21;2.80;99.90
45066;DHT22;30830;53.704;10.004;2022-12-07T14:17:51;2.70;99.90
45066;DHT22;30830;53.704;10.004;2022-12-07T14:20:30;2.70;99.90
45066;DHT22;30830;53.704;10.004;2022-12-07T14:22:56;2.60;99.90
45066;DHT22;30830;53.704;10.004;2022-12-07T14:25:25;2.60;99.90
45066;DHT22;30830;53.704;10.004;2022-12-07T14:30:18;2.50;99.90
45066;DHT22;30830;53.704;10.004;2022-12-07T14:32:44;2.40;99.90
45066;DHT22;30830;53.704;10.004;2022-12-07T14:35:14;2.40;99.90
45066;DHT22;30830;53.704;10.004;2022-12-07T14:37:41;2.40;99.90
45066;DHT22;30830;53.704;10.004;2022-12-07T14:40:07;2.30;99.90
45066;DHT22;30830;53.704;10.004;2022-12-07T14:42:33;2.30;99.90
45066;DHT22;30830;53.704;10.004;2022-12-07T14:44:59;2.30;99.90
45066;DHT22;30830;53.704;10.004;2022-12-07T14:47:25;2.20;99.90
45066;DHT22;30830;53.704;10.004;2022-12-07T14:49:51;2.20;99.90
45066;DHT22;30830;53.704;10.004;2022-12-07T14:52:18;2.20;99.90
45066;DHT22;30830;53.704;10.004;2022-12-07T14:54:44;2.10;99.90
45066;DHT22;30830;53.704;10.004;2022-12-07T14:57:10;2.00;99.90
45066;DHT22;30830;53.704;10.004;2022-12-07T14:59:36;2.00;99.90
45066;DHT22;30830;53.704;10.004;2022-12-07T15:02:02;2.00;99.90
45066;DHT22;30830;53.704;10.004;2022-12-07T15:04:27;1.90;99.90
45066;DHT22;30830;53.704;10.004;2022-12-07T15:06:59;1.90;99.90
45066;DHT22;30830;53.704;10.004;2022-12-07T15:09:25;1.80;99.90
45066;DHT22;30830;53.704;10.004;2022-12-07T15:11:51;1.80;99.90
45066;DHT22;30830;53.704;10.004;2022-12-07T15:14:16;1.70;99.90
45066;DHT22;30830;53.704;10.004;2022-12-07T15:16:42;1.70;99.90
45066;DHT22;30830;53.704;10.004;2022-12-07T15:19:15;1.60;99.90
45066;DHT22;30830;53.704;10.004;2022-12-07T15:21:41;1.60;99.90
45066;DHT22;30830;53.704;10.004;2022-12-07T15:24:08;1.50;99.90
45066;DHT22;30830;53.704;10.004;2022-12-07T15:26:33;1.40;99.90
45066;DHT22;30830;53.704;10.004;2022-12-07T15:28:59;1.40;99.90
45066;DHT22;30830;53.704;10.004;2022-12-07T15:31:25;1.30;99.90
45066;DHT22;30830;53.704;10.004;2022-12-07T15:33:50;1.30;99.90
45066;DHT22;30830;53.704;10.004;2022-12-07T15:36:20;1.20;99.90
45066;DHT22;30830;53.704;10.004;2022-12-07T15:38:46;1.20;99.90
45066;DHT22;30830;53.704;10.004;2022-12-07T15:41:12;1.10;99.90
45066;DHT22;30830;53.704;10.004;2022-12-07T15:43:37;1.10;99.90
45066;DHT22;30830;53.704;10.004;2022-12-07T15:46:21;1.00;99.90
45066;DHT22;30830;53.704;10.004;2022-12-07T15:48:47;1.00;99.90
45066;DHT22;30830;53.704;10.004;2022-12-07T15:51:13;1.00;99.90
45066;DHT22;30830;53.704;10.004;2022-12-07T15:53:38;0.90;99.90
45066;DHT22;30830;53.704;10.004;2022-12-07T15:56:07;0.80;99.90
45066;DHT22;30830;53.704;10.004;2022-12-07T15:58:33;0.80;99.90
45066;DHT22;30830;53.704;10.004;2022-12-07T16:00:58;0.80;99.90
45066;DHT22;30830;53.704;10.004;2022-12-07T16:03:24;0.70;99.90
45066;DHT22;30830;53.704;10.004;2022-12-07T16:05:50;0.70;99.90
45066;DHT22;30830;53.704;10.004;2022-12-07T16:08:16;0.60;99.90
45066;DHT22;30830;53.704;10.004;2022-12-07T16:10:41;0.60;99.90
45066;DHT22;30830;53.704;10.004;2022-12-07T16:13:11;0.50;99.90
45066;DHT22;30830;53.704;10.004;2022-12-07T16:15:39;0.50;99.90
45066;DHT22;30830;53.704;10.004;2022-12-07T16:18:04;0.50;99.90
45066;DHT22;30830;53.704;10.004;2022-12-07T16:20:30;0.40;99.90
45066;DHT22;30830;53.704;10.004;2022-12-07T16:22:55;0.40;99.90
45066;DHT22;30830;53.704;10.004;2022-12-07T16:25:21;0.40;99.90
45066;DHT22;30830;53.704;10.004;2022-12-07T16:27:46;0.30;99.90
45066;DHT22;30830;53.704;10.004;2022-12-07T16:30:12;0.30;99.90
45066;DHT22;30830;53.704;10.004;2022-12-07T16:32:37;0.20;99.90
45066;DHT22;30830;53.704;10.004;2022-12-07T16:35:03;0.20;99.90
45066;DHT22;30830;53.704;10.004;2022-12-07T16:37:29;0.10;99.90
45066;DHT22;30830;53.704;10.004;2022-12-07T16:39:54;0.10;99.90
45066;DHT22;30830;53.704;10.004;2022-12-07T16:42:19;0.10;99.90
45066;DHT22;30830;53.704;10.004;2022-12-07T16:44:45;0.10;99.90
45066;DHT22;30830;53.704;10.004;2022-12-07T16:47:10;0.10;99.90
45066;DHT22;30830;53.704;10.004;2022-12-07T16:49:36;0.10;99.90
45066;DHT22;30830;53.704;10.004;2022-12-07T16:52:01;0.00;99.90
45066;DHT22;30830;53.704;10.004;2022-12-07T16:54:27;0.00;99.90
45066;DHT22;30830;53.704;10.004;2022-12-07T16:56:56;0.00;99.90
45066;DHT22;30830;53.704;10.004;2022-12-07T16:59:21;0.00;99.90
45066;DHT22;30830;53.704;10.004;2022-12-07T17:01:47;0.00;99.90
45066;DHT22;30830;53.704;10.004;2022-12-07T17:04:12;0.00;99.90
45066;DHT22;30830;53.704;10.004;2022-12-07T17:06:38;0.00;99.90
45066;DHT22;30830;53.704;10.004;2022-12-07T17:09:03;0.00;99.90
45066;DHT22;30830;53.704;10.004;2022-12-07T17:11:34;0.00;99.90
45066;DHT22;30830;53.704;10.004;2022-12-07T17:13:59;0.00;99.90
45066;DHT22;30830;53.704;10.004;2022-12-07T17:16:44;0.00;99.90
45066;DHT22;30830;53.704;10.004;2022-12-07T17:19:11;0.00;99.90
45066;DHT22;30830;53.704;10.004;2022-12-07T17:21:37;-0.10;99.90
45066;DHT22;30830;53.704;10.004;2022-12-07T17:24:03;-0.10;99.90